GORAA EGJB-EGJB

Flight info

Callsign GORAA
Flight time 0h 52m
Altitude 2000
Route EGJB
Aircraft P28A/L-SFG/C

Departure

Time 2026-05-06 20:16
Airport Guernsey Airport (EGJB)

Arrival

Time 2026-05-06 21:09
Airport Guernsey Airport (EGJB)
Time Latitude Longitude Altitude Speed Heading
2026-05-06 20:01 49.43291 -2.60215 291 ft 0 kts 62°
2026-05-06 20:09 49.43309 -2.60202 293 ft 4 kts 356°
2026-05-06 20:09 49.43335 -2.60223 293 ft 10 kts 265°
2026-05-06 20:10 49.43331 -2.60358 288 ft 14 kts 268°
2026-05-06 20:10 49.43327 -2.60517 288 ft 17 kts 269°
2026-05-06 20:10 49.43341 -2.60728 294 ft 20 kts 279°
2026-05-06 20:10 49.43364 -2.60931 303 ft 17 kts 276°
2026-05-06 20:11 49.43362 -2.61082 306 ft 12 kts 268°
2026-05-06 20:11 49.43358 -2.61178 307 ft 7 kts 263°
2026-05-06 20:11 49.43354 -2.61237 307 ft 3 kts 338°
2026-05-06 20:11 49.43356 -2.61235 307 ft 0 kts 34°
2026-05-06 20:13 49.43357 -2.61235 308 ft 0 kts 34°
2026-05-06 20:14 49.43358 -2.61235 308 ft 2 kts 359°
2026-05-06 20:14 49.43377 -2.61284 309 ft 7 kts 311°
2026-05-06 20:15 49.43433 -2.61356 311 ft 13 kts 359°
2026-05-06 20:15 49.43467 -2.61293 310 ft 0 kts 90°
2026-05-06 20:15 49.43472 -2.61138 308 ft 45 kts 87°
2026-05-06 20:16 49.43482 -2.60407 436 ft 78 kts 88°
2026-05-06 20:16 49.43506 -2.59465 646 ft 98 kts 86°
2026-05-06 20:16 49.43528 -2.58418 946 ft 103 kts 87°
2026-05-06 20:16 49.43533 -2.57278 1171 ft 111 kts 104°
2026-05-06 20:17 49.42909 -2.56521 1206 ft 134 kts 171°
2026-05-06 20:17 49.41946 -2.56548 1223 ft 144 kts 180°
2026-05-06 20:17 49.40942 -2.56885 1096 ft 158 kts 208°
2026-05-06 20:17 49.40363 -2.58278 1057 ft 162 kts 261°
2026-05-06 20:18 49.40524 -2.59981 1067 ft 160 kts 282°
2026-05-06 20:18 49.40748 -2.61660 1034 ft 163 kts 282°
2026-05-06 20:18 49.40986 -2.63361 1059 ft 162 kts 282°
2026-05-06 20:18 49.41440 -2.64867 1014 ft 150 kts 320°
2026-05-06 20:19 49.42336 -2.65194 869 ft 132 kts 16°
2026-05-06 20:19 49.43111 -2.64701 672 ft 107 kts 26°
2026-05-06 20:19 49.43466 -2.63990 669 ft 84 kts 92°
2026-05-06 20:19 49.43417 -2.63106 567 ft 81 kts 86°
2026-05-06 20:20 49.43439 -2.62239 462 ft 81 kts 87°
2026-05-06 20:20 49.43463 -2.61384 344 ft 80 kts 86°
2026-05-06 20:20 49.43486 -2.60628 302 ft 58 kts 88°
2026-05-06 20:20 49.43504 -2.59861 393 ft 86 kts 85°
2026-05-06 20:21 49.43538 -2.58877 677 ft 97 kts 85°
2026-05-06 20:21 49.43536 -2.57782 891 ft 110 kts 104°
2026-05-06 20:21 49.42937 -2.56973 955 ft 133 kts 166°
2026-05-06 20:21 49.42001 -2.56945 1078 ft 139 kts 178°
2026-05-06 20:22 49.41028 -2.57287 921 ft 158 kts 215°
2026-05-06 20:22 49.40646 -2.58803 939 ft 156 kts 274°
2026-05-06 20:22 49.40768 -2.60460 990 ft 156 kts 279°
2026-05-06 20:22 49.40964 -2.62104 1018 ft 157 kts 281°
2026-05-06 20:23 49.41211 -2.63727 1079 ft 157 kts 284°
2026-05-06 20:23 49.41634 -2.65145 929 ft 137 kts 318°
2026-05-06 20:23 49.42472 -2.65425 746 ft 112 kts 19°
2026-05-06 20:23 49.43068 -2.65058 675 ft 82 kts 30°
2026-05-06 20:24 49.43405 -2.64455 647 ft 71 kts 78°
2026-05-06 20:24 49.43411 -2.63677 578 ft 75 kts 89°
2026-05-06 20:24 49.43422 -2.62889 526 ft 72 kts 86°
2026-05-06 20:24 49.43442 -2.62159 424 ft 67 kts 85°
2026-05-06 20:25 49.43463 -2.61433 352 ft 69 kts 85°
2026-05-06 20:25 49.43480 -2.60771 304 ft 53 kts 87°
2026-05-06 20:25 49.43498 -2.60144 352 ft 75 kts 86°
2026-05-06 20:25 49.43501 -2.59280 617 ft 87 kts 88°
2026-05-06 20:26 49.43469 -2.58293 863 ft 100 kts 101°
2026-05-06 20:26 49.42983 -2.57450 997 ft 122 kts 155°
2026-05-06 20:26 49.42082 -2.57419 1093 ft 134 kts 182°
2026-05-06 20:26 49.41143 -2.57766 1092 ft 148 kts 212°
2026-05-06 20:27 49.40556 -2.59037 1128 ft 154 kts 255°
2026-05-06 20:27 49.40560 -2.60696 1157 ft 155 kts 274°
2026-05-06 20:27 49.40724 -2.62359 1160 ft 159 kts 281°
2026-05-06 20:27 49.40709 -2.63977 1275 ft 144 kts 252°
2026-05-06 20:28 49.40165 -2.65177 1337 ft 135 kts 212°
2026-05-06 20:28 49.39306 -2.65488 1387 ft 127 kts 169°
2026-05-06 20:28 49.38605 -2.64756 1451 ft 123 kts 122°
2026-05-06 20:28 49.38521 -2.63498 1503 ft 123 kts 73°
2026-05-06 20:29 49.39100 -2.62557 1510 ft 129 kts 20°
2026-05-06 20:29 49.39965 -2.62903 1488 ft 135 kts 318°
2026-05-06 20:29 49.40278 -2.64242 1335 ft 147 kts 265°
2026-05-06 20:29 49.39692 -2.65473 1065 ft 150 kts 201°
2026-05-06 20:30 49.38746 -2.65273 1011 ft 140 kts 140°
2026-05-06 20:30 49.39090 -2.63082 1040 ft 131 kts 12°
2026-05-06 20:30 49.39938 -2.63604 1023 ft 138 kts 312°
2026-05-06 20:31 49.40340 -2.64915 1114 ft 136 kts 290°
2026-05-06 20:31 49.40679 -2.66340 1207 ft 146 kts 289°
2026-05-06 20:31 49.41030 -2.67842 1232 ft 153 kts 289°
2026-05-06 20:31 49.41417 -2.69346 1287 ft 147 kts 301°
2026-05-06 20:32 49.42186 -2.70152 1266 ft 129 kts 352°
2026-05-06 20:32 49.42932 -2.69715 1118 ft 118 kts 58°
2026-05-06 20:32 49.43201 -2.68676 1100 ft 91 kts 77°
2026-05-06 20:32 49.43292 -2.67748 1026 ft 90 kts 84°
2026-05-06 20:33 49.43326 -2.66779 959 ft 88 kts 87°
2026-05-06 20:33 49.43345 -2.65940 813 ft 71 kts 88°
2026-05-06 20:33 49.43356 -2.65170 725 ft 72 kts 84°
2026-05-06 20:33 49.43380 -2.64393 692 ft 71 kts 85°
2026-05-06 20:34 49.43400 -2.63637 607 ft 71 kts 86°
2026-05-06 20:34 49.43422 -2.62884 552 ft 71 kts 85°
2026-05-06 20:34 49.43442 -2.62137 440 ft 69 kts 85°
2026-05-06 20:34 49.43462 -2.61407 337 ft 68 kts 85°
2026-05-06 20:35 49.43482 -2.60757 304 ft 53 kts 89°
2026-05-06 20:35 49.43500 -2.60058 368 ft 82 kts 86°
2026-05-06 20:35 49.43525 -2.59117 653 ft 92 kts 86°
2026-05-06 20:35 49.43555 -2.58094 948 ft 101 kts 86°
2026-05-06 20:36 49.43581 -2.56965 1205 ft 109 kts 84°
2026-05-06 20:36 49.43906 -2.55896 1456 ft 119 kts 47°
2026-05-06 20:36 49.44655 -2.55189 1524 ft 136 kts 30°
2026-05-06 20:36 49.45522 -2.54442 1519 ft 148 kts 31°
2026-05-06 20:37 49.46418 -2.53686 1598 ft 150 kts 29°
2026-05-06 20:37 49.47342 -2.52911 1642 ft 151 kts 31°
2026-05-06 20:37 49.48280 -2.52160 1695 ft 152 kts 28°
2026-05-06 20:37 49.49255 -2.51508 1751 ft 153 kts 23°
2026-05-06 20:38 49.50228 -2.50942 1856 ft 149 kts 22°
2026-05-06 20:38 49.51171 -2.50323 1829 ft 154 kts 26°
2026-05-06 20:38 49.52132 -2.49615 1875 ft 152 kts 28°
2026-05-06 20:38 49.53031 -2.48737 1862 ft 154 kts 35°
2026-05-06 20:39 49.53622 -2.48138 1899 ft 153 kts 34°
2026-05-06 20:39 49.54507 -2.47244 1958 ft 151 kts 34°
2026-05-06 20:39 49.55401 -2.46371 1967 ft 154 kts 34°
2026-05-06 20:39 49.56306 -2.45467 1965 ft 155 kts 34°
2026-05-06 20:40 49.57519 -2.44348 2017 ft 153 kts 30°
2026-05-06 20:40 49.58465 -2.43570 2008 ft 155 kts 30°
2026-05-06 20:40 49.59099 -2.43017 2000 ft 155 kts 31°
2026-05-06 20:40 49.60033 -2.42186 2000 ft 156 kts 32°
2026-05-06 20:41 49.60957 -2.41297 1984 ft 156 kts 33°
2026-05-06 20:41 49.61860 -2.40394 2000 ft 155 kts 34°
2026-05-06 20:41 49.62781 -2.39501 1952 ft 157 kts 33°
2026-05-06 20:41 49.63703 -2.38609 1949 ft 156 kts 34°
2026-05-06 20:42 49.64595 -2.37698 1946 ft 156 kts 34°
2026-05-06 20:42 49.65520 -2.36825 1944 ft 156 kts 32°
2026-05-06 20:42 49.66467 -2.35998 1936 ft 156 kts 29°
2026-05-06 20:42 49.67383 -2.35095 1903 ft 157 kts 40°
2026-05-06 20:43 49.68087 -2.33835 1919 ft 153 kts 57°
2026-05-06 20:43 49.68634 -2.32477 1946 ft 133 kts 60°
2026-05-06 20:43 49.69062 -2.31424 1846 ft 101 kts 59°
2026-05-06 20:43 49.69363 -2.30581 1655 ft 82 kts 65°
2026-05-06 20:44 49.69605 -2.29792 1457 ft 81 kts 70°
2026-05-06 20:44 49.69767 -2.28972 1292 ft 81 kts 77°
2026-05-06 20:44 49.69891 -2.28133 1172 ft 79 kts 81°
2026-05-06 20:44 49.69976 -2.27312 1090 ft 77 kts 82°
2026-05-06 20:45 49.70067 -2.26500 980 ft 77 kts 78°
2026-05-06 20:45 49.70171 -2.25697 835 ft 76 kts 80°
2026-05-06 20:45 49.70262 -2.24903 709 ft 75 kts 80°
2026-05-06 20:45 49.70356 -2.24109 592 ft 76 kts 79°
2026-05-06 20:46 49.70459 -2.23287 457 ft 78 kts 79°
2026-05-06 20:46 49.70552 -2.22490 331 ft 72 kts 80°
2026-05-06 20:46 49.70635 -2.21785 267 ft 59 kts 79°
2026-05-06 20:46 49.70699 -2.21257 266 ft 61 kts 79°
2026-05-06 20:47 49.70799 -2.20436 427 ft 88 kts 79°
2026-05-06 20:47 49.70902 -2.19460 730 ft 96 kts 89°
2026-05-06 20:47 49.70534 -2.18588 928 ft 113 kts 160°
2026-05-06 20:47 49.69767 -2.18981 1002 ft 134 kts 233°
2026-05-06 20:48 49.69546 -2.20405 1102 ft 142 kts 262°
2026-05-06 20:48 49.69335 -2.21938 1175 ft 147 kts 256°
2026-05-06 20:48 49.69143 -2.23393 1123 ft 114 kts 261°
2026-05-06 20:48 49.69083 -2.24454 1057 ft 89 kts 268°
2026-05-06 20:49 49.69322 -2.25299 940 ft 86 kts 315°
2026-05-06 20:49 49.69840 -2.25741 809 ft 85 kts 351°
2026-05-06 20:49 49.70299 -2.25322 655 ft 82 kts 77°
2026-05-06 20:49 49.70344 -2.24467 578 ft 78 kts 84°
2026-05-06 20:50 49.70421 -2.23648 500 ft 75 kts 81°
2026-05-06 20:50 49.70509 -2.22860 402 ft 75 kts 81°
2026-05-06 20:50 49.70601 -2.22080 283 ft 71 kts 79°
2026-05-06 20:50 49.70676 -2.21454 267 ft 46 kts 79°
2026-05-06 20:51 49.70756 -2.21209 264 ft 17 kts 22°
2026-05-06 20:51 49.70840 -2.21162 265 ft 5 kts 343°
2026-05-06 20:51 49.70856 -2.21220 269 ft 8 kts 264°
2026-05-06 20:51 49.70850 -2.21263 274 ft 11 kts 252°
2026-05-06 20:52 49.70830 -2.21254 270 ft 0 kts 91°
2026-05-06 20:54 49.70836 -2.21260 272 ft 5 kts 282°
2026-05-06 20:54 49.70839 -2.21367 276 ft 13 kts 263°
2026-05-06 20:54 49.70805 -2.21458 274 ft 10 kts 248°
2026-05-06 20:54 49.70773 -2.21563 271 ft 11 kts 225°
2026-05-06 20:55 49.70691 -2.21547 266 ft 14 kts 155°
2026-05-06 20:55 49.70654 -2.21633 266 ft 15 kts 258°
2026-05-06 20:55 49.70628 -2.21849 267 ft 26 kts 259°
2026-05-06 20:55 49.70602 -2.22061 272 ft 10 kts
2026-05-06 20:56 49.70607 -2.22032 271 ft 8 kts 81°
2026-05-06 20:56 49.70657 -2.21611 266 ft 72 kts 79°
2026-05-06 20:56 49.70763 -2.20697 434 ft 96 kts 81°
2026-05-06 20:56 49.70835 -2.19641 739 ft 103 kts 98°
2026-05-06 20:57 49.70376 -2.18761 930 ft 119 kts 160°
2026-05-06 20:57 49.69589 -2.19139 1027 ft 134 kts 226°
2026-05-06 20:57 49.68989 -2.20250 1239 ft 135 kts 231°
2026-05-06 20:57 49.68424 -2.21368 1544 ft 130 kts 231°
2026-05-06 20:58 49.67878 -2.22471 1822 ft 129 kts 232°
2026-05-06 20:58 49.67326 -2.23593 1996 ft 136 kts 232°
2026-05-06 20:58 49.66742 -2.24821 2039 ft 146 kts 231°
2026-05-06 20:58 49.66101 -2.26012 2205 ft 143 kts 228°
2026-05-06 20:59 49.65418 -2.27170 2210 ft 151 kts 225°
2026-05-06 20:59 49.64665 -2.28365 2126 ft 157 kts 225°
2026-05-06 20:59 49.63939 -2.29621 2121 ft 157 kts 227°
2026-05-06 20:59 49.63211 -2.30883 2099 ft 158 kts 227°
2026-05-06 21:00 49.62482 -2.32145 2092 ft 157 kts 227°
2026-05-06 21:00 49.61755 -2.33405 2090 ft 157 kts 227°
2026-05-06 21:00 49.61027 -2.34670 2064 ft 158 kts 227°
2026-05-06 21:00 49.60308 -2.35922 2046 ft 158 kts 227°
2026-05-06 21:01 49.59582 -2.37188 2032 ft 157 kts 227°
2026-05-06 21:01 49.58856 -2.38456 2016 ft 157 kts 227°
2026-05-06 21:01 49.58131 -2.39720 2018 ft 157 kts 227°
2026-05-06 21:01 49.57408 -2.40983 2009 ft 157 kts 227°
2026-05-06 21:02 49.56684 -2.42248 2007 ft 157 kts 227°
2026-05-06 21:02 49.55961 -2.43509 2002 ft 157 kts 227°
2026-05-06 21:02 49.55246 -2.44756 1986 ft 157 kts 227°
2026-05-06 21:02 49.54521 -2.46018 1982 ft 157 kts 227°
2026-05-06 21:03 49.53799 -2.47278 1983 ft 157 kts 227°
2026-05-06 21:03 49.53076 -2.48541 1973 ft 157 kts 227°
2026-05-06 21:03 49.52372 -2.49790 1907 ft 151 kts 231°
2026-05-06 21:03 49.51817 -2.51142 1568 ft 145 kts 238°
2026-05-06 21:04 49.51314 -2.52466 1166 ft 144 kts 238°
2026-05-06 21:04 49.50748 -2.53871 930 ft 160 kts 237°
2026-05-06 21:04 49.50168 -2.55332 941 ft 159 kts 238°
2026-05-06 21:04 49.49581 -2.56793 886 ft 162 kts 237°
2026-05-06 21:05 49.48977 -2.58245 891 ft 160 kts 236°
2026-05-06 21:05 49.48360 -2.59680 883 ft 161 kts 236°
2026-05-06 21:05 49.47741 -2.61095 915 ft 161 kts 235°
2026-05-06 21:05 49.47107 -2.62510 915 ft 159 kts 234°
2026-05-06 21:06 49.46471 -2.63913 872 ft 161 kts 234°
2026-05-06 21:06 49.45828 -2.65312 823 ft 162 kts 233°
2026-05-06 21:06 49.45050 -2.66419 967 ft 133 kts 206°
2026-05-06 21:06 49.44239 -2.66633 981 ft 103 kts 170°
2026-05-06 21:07 49.43626 -2.66352 905 ft 83 kts 149°
2026-05-06 21:07 49.43285 -2.65722 866 ft 76 kts 100°
2026-05-06 21:07 49.43346 -2.64912 786 ft 77 kts 79°
2026-05-06 21:07 49.43392 -2.64132 673 ft 70 kts 86°
2026-05-06 21:08 49.43413 -2.63392 576 ft 68 kts 86°
2026-05-06 21:08 49.43430 -2.62669 494 ft 67 kts 85°
2026-05-06 21:08 49.43450 -2.61957 410 ft 66 kts 85°
2026-05-06 21:08 49.43467 -2.61273 318 ft 63 kts 85°
2026-05-06 21:09 49.43485 -2.60692 303 ft 45 kts 85°
2026-05-06 21:09 49.43495 -2.60278 306 ft 33 kts 86°
2026-05-06 21:09 49.43503 -2.59982 313 ft 23 kts 88°
2026-05-06 21:09 49.43450 -2.59861 318 ft 14 kts 178°
2026-05-06 21:10 49.43367 -2.59855 319 ft 10 kts 180°
2026-05-06 21:10 49.43341 -2.59967 311 ft 14 kts 268°
2026-05-06 21:10 49.43337 -2.60142 298 ft 15 kts 267°
2026-05-06 21:10 49.43309 -2.60202 292 ft 5 kts 177°
2026-05-06 21:11 49.43294 -2.60190 291 ft 0 kts 20°